Time;durP1;ratioP1;P1;durP2;ratioP2;P2;SDS_P1;SDS_P2;PMS_P1;PMS_P2;Temp;Humidity;BMP_temperature;BMP_pressure;BME280_temperature;BME280_humidity;BME280_pressure;Samples;Min_cycle;Max_cycle;Signal;HPM_P1;HPM_P2
2023/04/29 00:00:54;;;;;;;0.70;0.60;;;13.70;99.90;;;;;;5049567;28;20676;-67
2023/04/29 00:03:22;;;;;;;0.60;0.50;;;13.60;99.90;;;;;;5163606;22;20752;-71
2023/04/29 00:05:50;;;;;;;0.60;0.45;;;13.60;99.90;;;;;;5048346;28;20208;-72
2023/04/29 00:08:18;;;;;;;0.60;0.40;;;13.60;99.90;;;;;;5056639;28;20263;-72
2023/04/29 00:10:46;;;;;;;0.60;0.40;;;13.60;99.90;;;;;;5040907;28;20670;-71
2023/04/29 00:13:14;;;;;;;0.50;0.40;;;13.50;99.90;;;;;;5043123;28;20247;-71
2023/04/29 00:15:42;;;;;;;0.50;0.35;;;13.40;99.90;;;;;;5039373;28;20239;-71
2023/04/29 00:18:12;;;;;;;0.60;0.50;;;13.40;99.90;;;;;;5039271;28;20742;-71
2023/04/29 00:20:42;;;;;;;0.50;0.40;;;13.40;99.90;;;;;;5036463;28;20248;-71
2023/04/29 00:23:09;;;;;;;0.50;0.40;;;13.40;99.90;;;;;;5044194;28;20224;-70
2023/04/29 00:25:38;;;;;;;0.50;0.30;;;13.40;99.90;;;;;;5043166;28;20249;-71
2023/04/29 00:28:06;;;;;;;0.50;0.40;;;13.50;99.90;;;;;;5042921;28;20288;-71
2023/04/29 00:30:34;;;;;;;0.63;0.63;;;13.40;99.90;;;;;;5043027;28;20228;-70
2023/04/29 00:33:02;;;;;;;0.50;0.40;;;13.40;99.90;;;;;;5044808;28;20224;-71
2023/04/29 00:35:31;;;;;;;0.60;0.40;;;13.40;99.90;;;;;;5042235;28;20710;-71
2023/04/29 00:37:59;;;;;;;0.50;0.30;;;13.30;99.90;;;;;;5048686;28;20239;-74
2023/04/29 00:40:28;;;;;;;0.60;0.40;;;13.30;99.90;;;;;;5048441;28;20234;-75
2023/04/29 00:42:56;;;;;;;0.60;0.50;;;13.30;99.90;;;;;;5046245;28;20223;-72
2023/04/29 00:45:24;;;;;;;0.50;0.40;;;13.20;99.90;;;;;;5034708;28;20683;-71
2023/04/29 00:47:52;;;;;;;0.60;0.55;;;13.30;99.90;;;;;;5040262;28;20207;-72
2023/04/29 00:50:21;;;;;;;0.57;0.45;;;13.30;99.90;;;;;;5042649;28;20239;-72
2023/04/29 00:52:52;;;;;;;0.50;0.40;;;13.30;99.90;;;;;;5043982;28;20733;-71
2023/04/29 00:55:20;;;;;;;0.50;0.40;;;13.20;99.90;;;;;;5041633;28;20223;-71
2023/04/29 00:57:51;;;;;;;0.60;0.40;;;13.10;99.90;;;;;;5046212;28;20200;-72
2023/04/29 01:00:19;;;;;;;0.50;0.40;;;13.20;99.90;;;;;;5048088;28;20220;-72
2023/04/29 01:02:48;;;;;;;0.55;0.40;;;13.20;99.90;;;;;;5048360;28;20326;-72
2023/04/29 01:05:16;;;;;;;0.50;0.30;;;13.30;99.90;;;;;;5032934;28;20201;-71
2023/04/29 01:07:56;;;;;;;0.60;0.43;;;13.30;99.90;;;;;;5040258;28;20199;-71
2023/04/29 01:10:29;;;;;;;0.50;0.40;;;13.40;99.90;;;;;;5048174;28;20267;-71
2023/04/29 01:13:06;;;;;;;0.50;0.40;;;13.40;99.90;;;;;;5050222;28;20256;-72
2023/04/29 01:15:44;;;;;;;0.60;0.40;;;13.30;99.90;;;;;;5046904;28;20288;-71
2023/04/29 01:18:19;;;;;;;0.50;0.30;;;13.40;99.90;;;;;;5050027;28;20747;-72
2023/04/29 01:20:47;;;;;;;0.50;0.40;;;13.30;99.90;;;;;;5050261;28;20219;-71
2023/04/29 01:23:16;;;;;;;0.70;0.43;;;13.30;99.90;;;;;;5050025;28;20251;-72
2023/04/29 01:25:47;;;;;;;0.50;0.38;;;13.30;99.90;;;;;;5049708;28;20218;-71
2023/04/29 01:28:25;;;;;;;0.50;0.40;;;13.30;99.90;;;;;;5050215;28;20204;-72
2023/04/29 01:31:00;;;;;;;0.50;0.40;;;13.30;99.90;;;;;;5050210;28;20206;-71
2023/04/29 01:33:40;;;;;;;0.60;0.50;;;13.30;99.90;;;;;;5044975;28;20231;-72
2023/04/29 01:36:16;;;;;;;0.50;0.40;;;13.20;99.90;;;;;;5047975;28;20769;-72
2023/04/29 01:38:52;;;;;;;0.57;0.45;;;13.00;99.90;;;;;;5049450;28;20436;-73
2023/04/29 01:41:28;;;;;;;0.80;0.40;;;13.00;99.90;;;;;;5041956;28;20255;-72
2023/04/29 01:43:58;;;;;;;0.50;0.40;;;12.90;99.90;;;;;;5049710;28;20234;-72
2023/04/29 01:46:28;;;;;;;0.50;0.40;;;12.80;99.90;;;;;;5050042;28;20294;-72
2023/04/29 01:48:56;;;;;;;0.50;0.40;;;12.70;99.90;;;;;;5049664;28;20215;-72
2023/04/29 01:51:24;;;;;;;0.50;0.40;;;12.70;99.90;;;;;;5049987;28;20208;-71
2023/04/29 01:53:51;;;;;;;0.60;0.40;;;12.60;99.90;;;;;;5049305;28;20224;-72
2023/04/29 01:56:21;;;;;;;0.50;0.40;;;12.60;99.90;;;;;;5049515;28;20294;-73
2023/04/29 01:58:49;;;;;;;0.60;0.50;;;12.60;99.90;;;;;;5049594;28;20207;-71
2023/04/29 02:01:16;;;;;;;0.60;0.50;;;12.70;99.90;;;;;;5049587;28;20592;-73
2023/04/29 02:03:45;;;;;;;0.50;0.40;;;12.70;99.90;;;;;;5049684;28;20242;-72
2023/04/29 02:06:13;;;;;;;0.60;0.55;;;12.70;99.90;;;;;;5049601;28;20215;-73
2023/04/29 02:08:41;;;;;;;0.50;0.40;;;12.70;99.90;;;;;;5049653;28;20216;-72
2023/04/29 02:11:08;;;;;;;0.50;0.40;;;12.60;99.90;;;;;;5049579;28;20556;-73
2023/04/29 02:13:38;;;;;;;0.60;0.50;;;12.70;99.90;;;;;;5049627;28;20583;-73
2023/04/29 02:16:09;;;;;;;0.60;0.40;;;12.70;99.90;;;;;;5044897;28;20231;-71
2023/04/29 02:18:38;;;;;;;0.63;0.52;;;12.70;99.90;;;;;;5053630;28;20208;-72
2023/04/29 02:21:07;;;;;;;0.50;0.40;;;12.70;99.90;;;;;;5053339;28;20255;-73
2023/04/29 02:23:35;;;;;;;0.68;0.68;;;12.60;99.90;;;;;;5053506;28;20323;-73
2023/04/29 02:26:04;;;;;;;0.90;0.70;;;12.60;99.90;;;;;;5049823;28;20687;-73
2023/04/29 02:28:33;;;;;;;0.65;0.60;;;12.60;99.90;;;;;;5047354;28;20265;-72
2023/04/29 02:31:02;;;;;;;0.50;0.40;;;12.70;99.90;;;;;;5043050;28;20620;-73
2023/04/29 02:33:30;;;;;;;0.50;0.38;;;12.80;99.90;;;;;;5048806;28;20231;-71
2023/04/29 02:35:59;;;;;;;0.60;0.50;;;12.80;99.90;;;;;;5044377;28;20210;-71
2023/04/29 02:38:27;;;;;;;0.70;0.60;;;12.90;99.90;;;;;;5048688;28;20208;-71
2023/04/29 02:40:54;;;;;;;0.63;0.50;;;13.00;99.90;;;;;;5049456;28;20230;-73
2023/04/29 02:43:23;;;;;;;0.50;0.40;;;13.10;99.90;;;;;;5044996;28;20299;-69
2023/04/29 02:45:50;;;;;;;0.50;0.43;;;13.20;99.90;;;;;;5045370;28;20291;-72
2023/04/29 02:48:20;;;;;;;0.60;0.57;;;13.30;99.90;;;;;;5045266;28;20221;-73
2023/04/29 02:50:48;;;;;;;0.50;0.40;;;13.40;99.90;;;;;;5045350;28;20208;-73
2023/04/29 02:53:16;;;;;;;0.57;0.50;;;13.40;99.90;;;;;;5047745;28;20322;-72
2023/04/29 02:55:43;;;;;;;0.60;0.50;;;13.50;99.90;;;;;;5046725;28;20200;-75
2023/04/29 02:58:11;;;;;;;0.50;0.40;;;13.40;99.90;;;;;;5045366;28;20291;-72
2023/04/29 03:00:40;;;;;;;0.60;0.55;;;13.40;99.90;;;;;;5042370;28;20306;-72
2023/04/29 03:03:09;;;;;;;0.60;0.40;;;13.30;99.90;;;;;;5043824;28;20304;-73
2023/04/29 03:05:38;;;;;;;0.70;0.50;;;13.30;99.90;;;;;;5044301;28;20299;-74
2023/04/29 03:08:09;;;;;;;0.90;0.80;;;13.30;99.90;;;;;;5048449;28;20231;-73
2023/04/29 03:10:38;;;;;;;0.60;0.50;;;13.20;99.90;;;;;;5046595;28;20247;-72
2023/04/29 03:13:08;;;;;;;1.23;0.50;;;13.20;99.90;;;;;;5048468;28;20223;-74
2023/04/29 03:15:37;;;;;;;1.00;0.90;;;13.20;99.90;;;;;;5046329;28;20215;-73
2023/04/29 03:18:05;;;;;;;1.10;1.00;;;13.10;99.90;;;;;;5047899;28;20623;-72
2023/04/29 03:20:33;;;;;;;1.05;0.73;;;13.00;99.90;;;;;;5039403;28;20721;-73
2023/04/29 03:23:02;;;;;;;1.40;1.30;;;12.90;99.90;;;;;;5046600;28;20227;-76
2023/04/29 03:25:30;;;;;;;0.73;0.73;;;12.90;99.90;;;;;;5046765;28;20211;-73
2023/04/29 03:27:57;;;;;;;0.73;0.73;;;12.80;99.90;;;;;;5045826;28;20204;-73
2023/04/29 03:30:25;;;;;;;0.80;0.80;;;12.70;99.90;;;;;;5043245;28;20204;-76
2023/04/29 03:32:53;;;;;;;0.95;0.85;;;12.80;99.90;;;;;;5049259;28;20658;-75
2023/04/29 03:35:21;;;;;;;0.98;0.80;;;12.70;99.90;;;;;;5042348;28;21574;-74
2023/04/29 03:37:49;;;;;;;3.00;1.55;;;12.60;99.90;;;;;;5046644;28;20231;-73
2023/04/29 03:40:18;;;;;;;0.93;0.60;;;12.60;99.90;;;;;;5044418;28;20931;-74
2023/04/29 03:42:46;;;;;;;0.80;0.80;;;12.60;99.90;;;;;;5046363;28;20376;-74
2023/04/29 03:45:14;;;;;;;0.68;0.68;;;12.60;99.90;;;;;;5046276;28;20282;-73
2023/04/29 03:47:42;;;;;;;1.10;1.00;;;12.60;99.90;;;;;;5049297;28;20678;-74
2023/04/29 03:50:10;;;;;;;1.00;0.90;;;12.50;99.90;;;;;;5037767;28;20209;-72
2023/04/29 03:52:38;;;;;;;1.25;1.25;;;12.50;99.90;;;;;;5048944;28;20223;-74
2023/04/29 03:55:07;;;;;;;0.70;0.68;;;12.50;99.90;;;;;;5048153;28;20322;-73
2023/04/29 03:57:36;;;;;;;0.82;0.82;;;12.50;99.90;;;;;;5038073;28;20242;-72
2023/04/29 04:00:04;;;;;;;0.70;0.70;;;12.60;99.90;;;;;;5045293;28;20216;-74
2023/04/29 04:02:34;;;;;;;1.00;0.90;;;12.50;99.90;;;;;;5046600;28;20239;-73
2023/04/29 04:05:02;;;;;;;0.77;0.73;;;12.60;99.90;;;;;;5038684;28;20204;-71
2023/04/29 04:07:30;;;;;;;0.63;0.60;;;12.60;99.90;;;;;;5044528;28;20217;-72
2023/04/29 04:09:58;;;;;;;0.82;0.82;;;12.60;99.90;;;;;;5044414;28;20223;-75
2023/04/29 04:12:25;;;;;;;1.00;0.90;;;12.50;99.90;;;;;;5045416;28;20228;-73
2023/04/29 04:14:55;;;;;;;0.65;0.65;;;12.60;99.90;;;;;;5047443;28;20257;-74
2023/04/29 04:17:23;;;;;;;0.60;0.47;;;12.50;99.90;;;;;;5050886;28;20219;-73
2023/04/29 04:19:51;;;;;;;0.68;0.65;;;12.50;99.90;;;;;;5048748;28;20294;-72
2023/04/29 04:22:20;;;;;;;0.68;0.63;;;12.60;99.90;;;;;;5046371;28;20253;-73
2023/04/29 04:24:47;;;;;;;0.82;0.70;;;12.50;99.90;;;;;;5044296;28;20758;-72
2023/04/29 04:27:15;;;;;;;0.60;0.40;;;12.40;99.90;;;;;;5048283;28;20244;-72
2023/04/29 04:29:43;;;;;;;1.75;1.65;;;12.50;99.90;;;;;;5051295;28;20290;-71
2023/04/29 04:32:12;;;;;;;1.17;0.95;;;12.40;99.90;;;;;;5045969;28;20215;-72
2023/04/29 04:34:40;;;;;;;0.60;0.60;;;12.40;99.90;;;;;;5046089;28;20299;-73
2023/04/29 04:37:08;;;;;;;1.73;1.63;;;12.40;99.90;;;;;;5050813;28;20208;-74
2023/04/29 04:39:36;;;;;;;1.05;0.90;;;12.30;99.90;;;;;;5043494;28;20250;-73
2023/04/29 04:42:04;;;;;;;0.70;0.70;;;12.40;99.90;;;;;;5045395;28;20302;-75
2023/04/29 04:44:32;;;;;;;1.25;1.15;;;12.30;99.90;;;;;;5043619;28;20201;-74
2023/04/29 04:47:01;;;;;;;1.17;1.08;;;12.20;99.90;;;;;;5048777;28;20285;-72
2023/04/29 04:49:30;;;;;;;1.30;1.20;;;12.10;99.90;;;;;;5044301;28;20228;-75
2023/04/29 04:51:58;;;;;;;1.15;1.05;;;12.10;99.90;;;;;;5046787;28;20298;-71
2023/04/29 04:54:25;;;;;;;2.00;1.90;;;12.10;99.90;;;;;;5049086;28;20208;-73
2023/04/29 04:56:53;;;;;;;1.65;1.33;;;12.10;99.90;;;;;;5045739;28;20282;-74
2023/04/29 04:59:21;;;;;;;1.98;1.80;;;12.00;99.90;;;;;;5037644;28;20642;-73
2023/04/29 05:01:49;;;;;;;1.67;1.58;;;12.10;99.90;;;;;;5043599;28;20216;-73
2023/04/29 05:04:17;;;;;;;2.60;1.92;;;11.90;99.90;;;;;;5044129;28;20287;-74
2023/04/29 05:06:47;;;;;;;0.75;0.60;;;12.00;99.90;;;;;;5044023;28;20215;-74
2023/04/29 05:09:15;;;;;;;0.90;0.85;;;12.00;99.90;;;;;;5042175;28;20235;-73
2023/04/29 05:11:43;;;;;;;1.02;0.85;;;11.90;99.90;;;;;;5046774;28;20278;-73
2023/04/29 05:14:11;;;;;;;1.20;1.05;;;11.90;99.90;;;;;;5039560;28;20205;-74
2023/04/29 05:16:39;;;;;;;1.77;1.48;;;11.90;99.90;;;;;;5038272;28;20212;-74
2023/04/29 05:19:08;;;;;;;0.63;0.50;;;11.90;99.90;;;;;;5042083;28;20200;-73
2023/04/29 05:21:36;;;;;;;0.60;0.50;;;11.80;99.90;;;;;;5045875;28;20220;-74
2023/04/29 05:24:06;;;;;;;1.95;1.10;;;11.90;99.90;;;;;;5046311;28;20290;-74
2023/04/29 05:26:34;;;;;;;0.77;0.77;;;12.00;99.90;;;;;;5044435;28;20208;-73
2023/04/29 05:29:01;;;;;;;1.25;0.70;;;12.00;99.90;;;;;;5040652;28;20205;-74
2023/04/29 05:31:30;;;;;;;1.15;0.95;;;12.10;99.90;;;;;;5046399;28;20291;-73
2023/04/29 05:33:58;;;;;;;1.25;0.60;;;12.10;99.90;;;;;;5038028;28;20209;-74
2023/04/29 05:36:26;;;;;;;1.23;1.13;;;12.10;99.90;;;;;;5046034;28;20218;-74
2023/04/29 05:38:54;;;;;;;0.60;0.60;;;12.20;99.90;;;;;;5041476;28;20224;-73
2023/04/29 05:41:24;;;;;;;1.15;0.80;;;12.20;99.90;;;;;;5043581;28;20231;-73
2023/04/29 05:43:51;;;;;;;0.70;0.60;;;12.30;99.90;;;;;;5036725;28;20228;-73
2023/04/29 05:46:21;;;;;;;0.50;0.40;;;12.40;99.90;;;;;;5045562;28;20226;-76
2023/04/29 05:48:50;;;;;;;0.70;0.70;;;12.40;99.90;;;;;;5042481;28;20307;-74
2023/04/29 05:51:17;;;;;;;1.13;0.93;;;12.40;99.90;;;;;;5039612;28;20203;-78
2023/04/29 05:53:45;;;;;;;0.80;0.70;;;12.30;99.90;;;;;;5044384;28;20234;-73
2023/04/29 05:56:13;;;;;;;0.60;0.50;;;12.30;99.90;;;;;;5041860;28;20811;-78
2023/04/29 05:58:42;;;;;;;0.63;0.60;;;12.20;99.90;;;;;;5042909;28;20213;-73
2023/04/29 06:01:10;;;;;;;0.80;0.80;;;12.20;99.90;;;;;;5036598;28;20225;-75
2023/04/29 06:03:38;;;;;;;1.45;1.25;;;12.20;99.90;;;;;;5073152;22;20321;-64
2023/04/29 06:06:07;;;;;;;0.70;0.68;;;12.20;99.90;;;;;;5046473;28;20214;-65
2023/04/29 06:08:35;;;;;;;0.60;0.50;;;12.30;99.90;;;;;;5042454;28;20223;-64
2023/04/29 06:11:04;;;;;;;0.60;0.45;;;12.30;99.90;;;;;;5046032;28;20212;-64
2023/04/29 06:13:32;;;;;;;1.08;0.70;;;12.30;99.90;;;;;;5039178;28;20224;-63
2023/04/29 06:16:01;;;;;;;0.70;0.60;;;12.30;99.90;;;;;;5037938;28;20243;-63
2023/04/29 06:18:29;;;;;;;0.50;0.43;;;12.30;99.90;;;;;;5035678;28;20694;-64
2023/04/29 06:20:57;;;;;;;0.80;0.57;;;12.40;99.90;;;;;;5032516;28;20212;-63
2023/04/29 06:23:25;;;;;;;0.82;0.80;;;12.50;99.90;;;;;;5033417;28;20234;-63
2023/04/29 06:25:53;;;;;;;0.70;0.70;;;12.60;99.90;;;;;;5039186;28;20208;-64
2023/04/29 06:28:21;;;;;;;0.95;0.85;;;12.60;99.90;;;;;;5048622;28;20630;-63
2023/04/29 06:30:49;;;;;;;0.68;0.65;;;12.60;99.90;;;;;;5048292;28;20262;-63
2023/04/29 06:33:18;;;;;;;1.38;1.27;;;12.60;99.90;;;;;;5039530;28;20306;-63
2023/04/29 06:35:46;;;;;;;1.00;0.60;;;12.60;99.90;;;;;;5033687;28;20304;-63
2023/04/29 06:38:13;;;;;;;0.60;0.40;;;12.80;99.90;;;;;;5033299;28;20201;-64
2023/04/29 06:40:41;;;;;;;1.00;0.70;;;13.00;99.90;;;;;;5033672;28;20196;-65
2023/04/29 06:43:09;;;;;;;0.60;0.50;;;13.20;99.90;;;;;;5041227;28;20235;-64
2023/04/29 06:45:37;;;;;;;1.20;1.00;;;13.20;99.90;;;;;;5038917;28;20228;-63
2023/04/29 06:48:06;;;;;;;1.10;0.47;;;13.40;99.90;;;;;;5035564;28;20587;-64
2023/04/29 06:50:35;;;;;;;0.50;0.40;;;13.50;99.90;;;;;;5036527;28;20658;-63
2023/04/29 06:53:03;;;;;;;1.10;0.65;;;13.50;99.90;;;;;;5032775;28;20226;-63
2023/04/29 06:55:31;;;;;;;0.73;0.60;;;13.50;99.90;;;;;;5041967;28;20200;-63
2023/04/29 06:57:58;;;;;;;0.85;0.63;;;13.40;99.90;;;;;;5033509;28;20204;-63
2023/04/29 07:00:27;;;;;;;1.42;0.60;;;13.30;99.90;;;;;;5030727;28;20215;-63
2023/04/29 07:02:55;;;;;;;0.70;0.60;;;13.20;99.90;;;;;;5030950;28;20270;-63
2023/04/29 07:05:24;;;;;;;0.60;0.40;;;13.20;99.90;;;;;;5037054;28;20236;-63
2023/04/29 07:07:53;;;;;;;0.70;0.60;;;13.30;99.90;;;;;;5036589;28;20771;-64
2023/04/29 07:10:21;;;;;;;0.63;0.60;;;13.20;99.90;;;;;;5049849;28;20581;-63
2023/04/29 07:12:49;;;;;;;0.70;0.57;;;13.30;99.90;;;;;;5052740;28;20219;-63
2023/04/29 07:15:17;;;;;;;1.15;0.95;;;13.20;99.90;;;;;;5053556;28;20577;-63
2023/04/29 07:17:44;;;;;;;0.50;0.40;;;13.30;99.90;;;;;;5053063;28;20208;-63
2023/04/29 07:20:13;;;;;;;0.60;0.50;;;13.50;99.90;;;;;;5069316;28;20257;-63
2023/04/29 07:22:41;;;;;;;0.80;0.52;;;13.60;99.90;;;;;;5044566;28;20269;-63
2023/04/29 07:25:10;;;;;;;0.50;0.40;;;13.60;99.90;;;;;;5053403;28;20291;-64
2023/04/29 07:27:39;;;;;;;1.50;1.25;;;13.50;99.90;;;;;;5053394;28;20298;-64
2023/04/29 07:30:07;;;;;;;0.90;0.70;;;13.60;99.90;;;;;;5053021;28;20222;-63
2023/04/29 07:32:35;;;;;;;0.65;0.63;;;13.60;99.90;;;;;;5052965;28;20262;-63
2023/04/29 07:35:04;;;;;;;0.80;0.73;;;13.70;99.90;;;;;;5053261;28;20274;-64
2023/04/29 07:37:32;;;;;;;1.00;0.95;;;13.80;99.90;;;;;;5053009;28;20290;-63
2023/04/29 07:40:00;;;;;;;3.15;1.13;;;13.80;99.90;;;;;;5052841;28;20295;-63
2023/04/29 07:42:29;;;;;;;0.60;0.40;;;13.90;99.90;;;;;;5051028;28;20231;-64
2023/04/29 07:44:57;;;;;;;0.50;0.40;;;13.90;99.90;;;;;;5053085;28;20234;-64
2023/04/29 07:47:25;;;;;;;0.98;0.73;;;13.80;99.90;;;;;;5052696;28;20700;-63
2023/04/29 07:49:53;;;;;;;0.60;0.40;;;13.80;99.90;;;;;;5065821;28;20207;-63
2023/04/29 07:52:21;;;;;;;0.70;0.60;;;13.90;99.90;;;;;;5063437;28;20774;-64
2023/04/29 07:54:49;;;;;;;0.60;0.50;;;13.90;99.90;;;;;;5052795;28;20207;-63
2023/04/29 07:57:17;;;;;;;0.65;0.63;;;13.90;99.90;;;;;;5050805;28;20287;-63
2023/04/29 07:59:46;;;;;;;0.70;0.70;;;13.60;99.90;;;;;;5052152;28;20218;-64
2023/04/29 08:02:15;;;;;;;0.70;0.60;;;13.50;99.90;;;;;;5052267;28;20285;-63
2023/04/29 08:04:43;;;;;;;0.65;0.55;;;13.50;99.90;;;;;;5044651;28;20258;-63
2023/04/29 08:07:12;;;;;;;0.50;0.30;;;13.50;99.90;;;;;;5052686;28;20204;-64
2023/04/29 08:09:40;;;;;;;0.65;0.50;;;13.70;99.90;;;;;;5051908;28;20207;-63
2023/04/29 08:12:09;;;;;;;0.82;0.68;;;13.70;99.90;;;;;;5052508;28;20206;-64
2023/04/29 08:14:37;;;;;;;0.98;0.68;;;13.60;99.90;;;;;;5050624;28;20287;-64
2023/04/29 08:17:07;;;;;;;1.33;0.65;;;13.60;99.90;;;;;;5052275;28;20577;-63
2023/04/29 08:19:35;;;;;;;0.98;0.77;;;13.70;99.90;;;;;;5054230;28;20261;-63
2023/04/29 08:22:03;;;;;;;0.60;0.50;;;13.70;99.90;;;;;;5057798;28;20264;-64
2023/04/29 08:24:32;;;;;;;0.60;0.50;;;13.70;99.90;;;;;;5052348;28;20212;-63
2023/04/29 08:27:00;;;;;;;1.02;0.68;;;13.70;99.90;;;;;;5052270;28;20208;-63
2023/04/29 08:29:31;;;;;;;0.60;0.57;;;13.70;99.90;;;;;;5049882;28;20208;-63
2023/04/29 08:31:59;;;;;;;0.50;0.40;;;13.60;99.90;;;;;;5052130;28;20600;-63
2023/04/29 08:34:29;;;;;;;0.60;0.40;;;13.50;99.90;;;;;;5051929;28;20333;-63
2023/04/29 08:36:57;;;;;;;0.50;0.40;;;13.50;99.90;;;;;;5052402;28;20583;-64
2023/04/29 08:39:25;;;;;;;0.80;0.60;;;13.50;99.90;;;;;;5051620;28;20215;-63
2023/04/29 08:41:55;;;;;;;0.60;0.47;;;13.60;99.90;;;;;;5051911;28;20200;-63
2023/04/29 08:44:23;;;;;;;0.60;0.40;;;13.70;99.90;;;;;;5051628;28;20222;-64
2023/04/29 08:46:51;;;;;;;0.60;0.50;;;13.70;99.90;;;;;;5051951;28;20290;-63
2023/04/29 08:49:19;;;;;;;0.88;0.60;;;13.70;99.90;;;;;;5052020;28;20294;-63
2023/04/29 08:51:50;;;;;;;0.60;0.50;;;13.70;99.90;;;;;;5052266;28;20287;-63
2023/04/29 08:54:18;;;;;;;0.95;0.52;;;13.60;99.90;;;;;;5050194;28;20286;-63
2023/04/29 08:56:47;;;;;;;0.65;0.55;;;13.50;99.90;;;;;;5051695;28;20577;-63
2023/04/29 08:59:16;;;;;;;0.60;0.55;;;13.40;99.90;;;;;;5051486;28;20655;-63
2023/04/29 09:01:49;;;;;;;0.60;0.50;;;13.30;99.90;;;;;;5051336;28;20279;-63
2023/04/29 09:04:29;;;;;;;0.80;0.63;;;13.30;99.90;;;;;;5050380;28;20266;-63
2023/04/29 09:06:59;;;;;;;0.50;0.30;;;13.30;99.90;;;;;;5045085;28;20208;-63
2023/04/29 09:09:28;;;;;;;0.90;0.70;;;13.30;99.90;;;;;;5051095;28;20235;-64
2023/04/29 09:11:56;;;;;;;0.60;0.40;;;13.40;99.90;;;;;;5051393;28;20200;-64
2023/04/29 09:14:25;;;;;;;0.60;0.60;;;13.40;99.90;;;;;;5051055;28;20203;-63
2023/04/29 09:16:53;;;;;;;1.00;0.95;;;13.40;99.90;;;;;;5051334;28;20286;-64
2023/04/29 09:19:31;;;;;;;0.60;0.50;;;13.30;99.90;;;;;;5059111;28;20260;-64
2023/04/29 09:22:01;;;;;;;1.13;0.77;;;13.30;99.90;;;;;;5044768;28;20268;-63
2023/04/29 09:24:31;;;;;;;1.08;0.68;;;13.30;99.90;;;;;;5049555;28;20662;-63
2023/04/29 09:26:59;;;;;;;0.77;0.68;;;13.40;99.90;;;;;;5044971;28;20675;-63
2023/04/29 09:29:28;;;;;;;0.75;0.75;;;13.60;99.90;;;;;;5050663;28;20295;-63
2023/04/29 09:31:57;;;;;;;1.45;0.80;;;13.50;99.90;;;;;;5051066;28;20227;-64
2023/04/29 09:34:34;;;;;;;0.70;0.70;;;13.50;99.90;;;;;;5051047;28;20318;-63
2023/04/29 09:37:03;;;;;;;0.60;0.55;;;13.60;99.90;;;;;;5051051;28;20198;-64
2023/04/29 09:39:39;;;;;;;0.57;0.47;;;13.50;99.90;;;;;;5050680;28;20290;-64
2023/04/29 09:42:08;;;;;;;0.88;0.70;;;13.50;99.90;;;;;;5049132;28;20223;-64
2023/04/29 09:44:36;;;;;;;0.60;0.57;;;13.60;99.90;;;;;;5050674;28;20308;-64
2023/04/29 09:47:05;;;;;;;0.52;0.40;;;13.60;99.90;;;;;;5050823;28;20210;-63
2023/04/29 09:49:36;;;;;;;0.50;0.30;;;13.60;99.90;;;;;;5058664;28;20294;-64
2023/04/29 09:52:07;;;;;;;1.50;0.93;;;13.60;99.90;;;;;;5059114;28;20291;-64
2023/04/29 09:54:37;;;;;;;0.60;0.50;;;13.50;99.90;;;;;;5050738;28;20212;-63
2023/04/29 09:57:08;;;;;;;1.52;1.02;;;13.50;99.90;;;;;;5050739;28;20208;-64
2023/04/29 09:59:37;;;;;;;1.08;0.98;;;13.50;99.90;;;;;;5050288;28;20220;-64
2023/04/29 10:02:14;;;;;;;1.65;1.55;;;13.50;99.90;;;;;;5043458;28;20583;-64
2023/04/29 10:04:44;;;;;;;0.60;0.40;;;13.40;99.90;;;;;;5050473;28;20231;-64
2023/04/29 10:07:16;;;;;;;0.85;0.70;;;13.50;99.90;;;;;;5050645;28;20286;-64
2023/04/29 10:09:46;;;;;;;0.80;0.65;;;13.70;99.90;;;;;;5050264;28;20210;-63
2023/04/29 10:12:17;;;;;;;0.80;0.80;;;13.70;99.90;;;;;;5050696;28;20219;-64
2023/04/29 10:14:50;;;;;;;1.50;0.65;;;13.70;99.90;;;;;;5050622;28;20204;-64
2023/04/29 10:17:24;;;;;;;2.60;0.85;;;13.80;99.90;;;;;;5048925;28;20227;-63
2023/04/29 10:19:58;;;;;;;0.95;0.80;;;13.90;99.90;;;;;;5050306;28;20227;-64
2023/04/29 10:22:36;;;;;;;0.70;0.60;;;14.00;99.90;;;;;;5058584;28;20228;-64
2023/04/29 10:25:07;;;;;;;0.70;0.60;;;14.10;99.90;;;;;;5050431;28;20567;-64
2023/04/29 10:27:37;;;;;;;1.42;1.33;;;14.20;99.90;;;;;;5050448;28;20208;-64
2023/04/29 10:30:10;;;;;;;0.70;0.68;;;14.20;99.90;;;;;;5050224;28;20210;-64
2023/04/29 10:32:41;;;;;;;0.85;0.60;;;14.30;99.90;;;;;;5050298;28;20231;-64
2023/04/29 10:35:21;;;;;;;0.55;0.45;;;14.20;99.90;;;;;;5050604;28;20196;-64
2023/04/29 10:37:51;;;;;;;1.05;0.60;;;14.20;99.90;;;;;;5049675;28;20214;-64
2023/04/29 10:40:28;;;;;;;1.08;0.70;;;14.20;99.90;;;;;;5053693;28;20204;-64
2023/04/29 10:42:56;;;;;;;0.65;0.65;;;14.10;99.90;;;;;;5054179;28;20247;-64
2023/04/29 10:45:25;;;;;;;0.70;0.40;;;14.10;99.90;;;;;;5054175;28;20251;-64
2023/04/29 10:48:17;;;;;;;0.60;0.50;;;14.10;99.90;;;;;;5046345;28;20655;-64
2023/04/29 10:51:04;;;;;;;0.63;0.60;;;14.20;99.90;;;;;;5064339;28;20240;-64
2023/04/29 10:53:34;;;;;;;0.60;0.47;;;14.20;99.90;;;;;;5054894;28;20227;-64
2023/04/29 10:56:08;;;;;;;0.60;0.40;;;14.20;99.90;;;;;;5054113;28;20254;-63
2023/04/29 10:58:42;;;;;;;0.70;0.60;;;14.40;99.90;;;;;;5053565;28;20261;-64
2023/04/29 11:01:11;;;;;;;1.13;0.50;;;14.40;99.90;;;;;;5053858;28;20204;-64
2023/04/29 11:03:59;;;;;;;0.55;0.45;;;14.50;99.90;;;;;;5053254;28;20678;-64
2023/04/29 11:06:40;;;;;;;0.60;0.60;;;14.70;99.90;;;;;;5053785;28;20301;-64
2023/04/29 11:09:12;;;;;;;0.98;0.57;;;14.90;99.90;;;;;;5053714;28;20204;-64
2023/04/29 11:11:45;;;;;;;0.90;0.50;;;15.10;99.90;;;;;;5053373;28;20204;-64
2023/04/29 11:14:14;;;;;;;0.80;0.52;;;15.30;99.90;;;;;;5051859;28;20320;-64
2023/04/29 11:16:51;;;;;;;0.55;0.43;;;15.90;99.90;;;;;;5053523;28;20736;-64
2023/04/29 11:19:20;;;;;;;0.90;0.70;;;16.50;99.90;;;;;;5060508;28;20199;-64
2023/04/29 11:21:48;;;;;;;0.70;0.57;;;16.80;99.90;;;;;;5070080;28;20235;-64
2023/04/29 11:24:17;;;;;;;0.50;0.40;;;17.10;99.90;;;;;;5053426;28;20800;-63
2023/04/29 11:26:45;;;;;;;0.70;0.63;;;17.30;99.90;;;;;;5053308;28;20696;-64
2023/04/29 11:29:13;;;;;;;0.50;0.40;;;17.40;99.90;;;;;;5051454;28;20219;-64
2023/04/29 11:31:41;;;;;;;0.50;0.40;;;17.60;99.90;;;;;;5053281;28;20211;-64
2023/04/29 11:34:09;;;;;;;0.60;0.60;;;17.70;99.90;;;;;;5053299;28;20228;-64
2023/04/29 11:36:37;;;;;;;0.70;0.60;;;17.60;99.90;;;;;;5053137;28;20305;-64
2023/04/29 11:39:05;;;;;;;0.60;0.40;;;17.50;99.90;;;;;;5053191;28;20742;-64
2023/04/29 11:41:35;;;;;;;0.50;0.40;;;17.50;99.90;;;;;;5052690;28;20208;-64
2023/04/29 11:44:05;;;;;;;0.63;0.55;;;17.60;99.90;;;;;;5051184;28;20307;-64
2023/04/29 11:46:34;;;;;;;0.55;0.40;;;17.50;99.90;;;;;;5052862;28;20235;-64
2023/04/29 11:49:02;;;;;;;2.15;0.82;;;17.50;99.90;;;;;;5057107;28;20658;-64
2023/04/29 11:51:31;;;;;;;0.50;0.40;;;17.30;99.90;;;;;;5063986;28;20207;-64
2023/04/29 11:53:59;;;;;;;0.60;0.40;;;17.40;99.90;;;;;;5052921;28;20749;-64
2023/04/29 11:56:27;;;;;;;0.50;0.40;;;17.40;99.90;;;;;;5052954;28;20299;-64
2023/04/29 11:58:57;;;;;;;0.60;0.45;;;17.30;99.90;;;;;;5052928;28;20303;-64
2023/04/29 12:01:26;;;;;;;0.60;0.50;;;17.20;99.90;;;;;;5052695;28;20207;-64
2023/04/29 12:03:59;;;;;;;0.57;0.45;;;17.10;99.90;;;;;;5052297;28;20657;-64
2023/04/29 12:06:28;;;;;;;0.60;0.50;;;16.80;99.90;;;;;;5049039;28;20632;-64
2023/04/29 12:08:59;;;;;;;0.55;0.40;;;16.80;99.90;;;;;;5044668;28;20199;-64
2023/04/29 12:11:27;;;;;;;0.60;0.50;;;16.80;99.90;;;;;;5052320;28;20613;-64
2023/04/29 12:13:59;;;;;;;0.80;0.60;;;16.80;99.90;;;;;;5052410;28;20303;-64
2023/04/29 12:16:28;;;;;;;0.50;0.30;;;16.80;99.90;;;;;;5052604;28;20218;-64
2023/04/29 12:18:57;;;;;;;0.95;0.50;;;16.70;99.90;;;;;;5046161;28;20200;-64
2023/04/29 12:21:26;;;;;;;0.57;0.45;;;16.70;99.90;;;;;;5037896;28;20940;-65
2023/04/29 12:23:54;;;;;;;0.60;0.50;;;16.60;99.90;;;;;;5032467;28;20342;-64
2023/04/29 12:26:22;;;;;;;0.60;0.50;;;16.50;99.90;;;;;;5036777;28;20234;-64
2023/04/29 12:28:54;;;;;;;0.60;0.60;;;16.20;99.90;;;;;;5031931;28;20215;-63
2023/04/29 12:31:24;;;;;;;1.02;0.40;;;16.00;99.90;;;;;;5032074;28;20200;-64
2023/04/29 12:33:55;;;;;;;0.80;0.50;;;16.10;99.90;;;;;;5031918;28;20239;-64
2023/04/29 12:36:23;;;;;;;0.50;0.40;;;16.10;99.90;;;;;;5032097;28;20283;-64
2023/04/29 12:38:53;;;;;;;0.60;0.50;;;16.40;99.90;;;;;;5031835;28;20287;-64
2023/04/29 12:41:36;;;;;;;0.70;0.50;;;16.60;99.90;;;;;;5032152;28;20258;-64
2023/04/29 12:44:05;;;;;;;0.60;0.40;;;17.00;99.90;;;;;;5032059;28;20633;-64
2023/04/29 12:46:39;;;;;;;0.50;0.30;;;17.50;99.90;;;;;;5037372;28;20252;-64
2023/04/29 12:49:08;;;;;;;0.70;0.60;;;17.60;99.90;;;;;;5039592;28;20216;-64
2023/04/29 12:51:36;;;;;;;0.60;0.45;;;17.60;99.90;;;;;;5067898;28;20682;-64
2023/04/29 12:54:06;;;;;;;0.52;0.40;;;17.60;99.90;;;;;;5051864;28;20223;-64
2023/04/29 12:56:34;;;;;;;0.60;0.40;;;17.40;99.90;;;;;;5051561;28;20226;-64
2023/04/29 12:59:07;;;;;;;0.80;0.68;;;17.40;99.90;;;;;;5051613;28;20291;-64